Time;durP1;ratioP1;P1;durP2;ratioP2;P2;SDS_P1;SDS_P2;PMS_P1;PMS_P2;Temp;Humidity;BMP_temperature;BMP_pressure;BME280_temperature;BME280_humidity;BME280_pressure;Samples;Min_cycle;Max_cycle;Signal;HPM_P1;HPM_P2
2021/07/25 00:01:14;;;;;;;21.73;19.20;;;;;;;20.54;82.68;100027.97;5018808;28;20218;-80
2021/07/25 00:03:41;;;;;;;20.67;18.77;;;;;;;20.55;82.57;100017.97;5006222;28;20649;-80
2021/07/25 00:06:07;;;;;;;21.80;19.47;;;;;;;20.54;82.89;100017.13;5003234;28;20249;-79
2021/07/25 00:08:34;;;;;;;22.83;20.53;;;;;;;20.52;82.75;100011.06;5008961;28;20216;-79
2021/07/25 00:11:02;;;;;;;24.77;22.20;;;;;;;20.53;82.97;100006.50;5006340;28;20202;-79
2021/07/25 00:13:30;;;;;;;24.20;21.60;;;;;;;20.51;83.01;100011.22;5000907;28;20206;-79
2021/07/25 00:15:56;;;;;;;26.23;22.67;;;;;;;20.51;82.96;100003.13;5001713;28;20232;-80
2021/07/25 00:18:23;;;;;;;24.00;21.33;;;;;;;20.51;83.17;100008.53;5003740;28;20215;-79
2021/07/25 00:20:49;;;;;;;27.83;20.90;;;;;;;20.50;83.04;100001.44;5009481;28;20301;-79
2021/07/25 00:23:18;;;;;;;27.73;22.43;;;;;;;20.49;82.93;100000.59;5010996;28;20217;-79
2021/07/25 00:25:46;;;;;;;26.03;21.37;;;;;;;20.48;83.03;99996.19;5000243;28;20242;-79
2021/07/25 00:28:17;;;;;;;28.53;22.33;;;;;;;20.46;82.93;99995.53;5001446;28;20205;-79
2021/07/25 00:30:44;;;;;;;24.27;21.70;;;;;;;20.44;83.01;100003.81;5000486;28;20206;-79
2021/07/25 00:33:11;;;;;;;25.90;23.07;;;;;;;20.42;82.93;100005.84;5007324;28;20264;-79
2021/07/25 00:35:37;;;;;;;29.23;23.13;;;;;;;20.40;82.94;99997.09;5001677;28;20602;-79
2021/07/25 00:38:04;;;;;;;29.00;24.03;;;;;;;20.39;83.11;100002.66;5006929;28;20213;-79
2021/07/25 00:40:39;;;;;;;27.83;22.70;;;;;;;20.37;83.01;100000.13;5007372;28;20645;-77
2021/07/25 00:43:05;;;;;;;26.90;22.43;;;;;;;20.36;83.02;100005.69;5004332;28;20213;-79
2021/07/25 00:45:34;;;;;;;30.30;23.77;;;;;;;20.33;82.74;100009.59;5010427;28;20687;-78
2021/07/25 00:48:01;;;;;;;28.73;22.60;;;;;;;20.31;82.62;99998.09;5009226;28;20587;-78
2021/07/25 00:50:28;;;;;;;26.93;23.03;;;;;;;20.30;82.69;100003.69;5013665;28;20216;-78
2021/07/25 00:52:54;;;;;;;27.47;22.87;;;;;;;20.29;82.59;100000.13;5011146;28;20556;-79
2021/07/25 00:55:21;;;;;;;27.83;23.70;;;;;;;20.27;82.41;100001.31;5014413;28;20231;-79
2021/07/25 00:57:48;;;;;;;28.03;22.70;;;;;;;20.25;82.44;99996.09;5014091;28;20202;-79
2021/07/25 01:00:15;;;;;;;27.80;23.20;;;;;;;20.24;82.44;99997.13;5005956;28;20209;-79
2021/07/25 01:02:52;;;;;;;29.00;22.20;;;;;;;20.24;82.24;99993.59;5012959;28;20220;-80
2021/07/25 01:05:30;;;;;;;30.07;23.40;;;;;;;20.22;82.01;99998.31;5018317;28;20225;-79
2021/07/25 01:08:08;;;;;;;32.20;24.30;;;;;;;20.21;81.87;99996.63;5013295;28;20222;-79
2021/07/25 01:10:35;;;;;;;29.53;23.50;;;;;;;20.18;81.99;99999.69;5015180;28;20212;-80
2021/07/25 01:13:08;;;;;;;29.10;23.83;;;;;;;20.15;81.78;99998.16;5019666;28;20200;-80
2021/07/25 01:15:35;;;;;;;29.30;23.83;;;;;;;20.14;81.70;99987.53;5019008;28;20253;-80
2021/07/25 01:18:04;;;;;;;28.47;23.83;;;;;;;20.13;81.54;99985.84;5019265;28;20208;-79
2021/07/25 01:20:32;;;;;;;26.87;23.30;;;;;;;20.12;81.37;99987.69;5016748;28;20381;-80
2021/07/25 01:23:00;;;;;;;30.67;24.57;;;;;;;20.11;81.39;99992.25;5010950;28;20711;-80
2021/07/25 01:25:28;;;;;;;30.93;24.80;;;;;;;20.09;81.29;99983.47;5016603;28;20232;-80
2021/07/25 01:28:01;;;;;;;30.53;24.20;;;;;;;20.08;81.39;99992.59;5009546;28;20226;-80
2021/07/25 01:30:30;;;;;;;32.17;24.03;;;;;;;20.10;81.41;99992.44;5016804;28;20207;-80
2021/07/25 01:33:02;;;;;;;27.67;21.93;;;;;;;20.09;81.29;99998.84;5005798;28;20215;-80
2021/07/25 01:35:29;;;;;;;26.33;23.53;;;;;;;20.08;81.24;99995.31;5015151;28;20236;-80
2021/07/25 01:37:57;;;;;;;28.67;23.00;;;;;;;20.06;81.19;99997.34;5017927;28;20206;-80
2021/07/25 01:40:26;;;;;;;29.73;23.60;;;;;;;20.05;81.01;100001.09;5018943;28;20579;-80
2021/07/25 01:42:53;;;;;;;26.67;23.23;;;;;;;20.03;80.96;99989.59;5009035;28;20201;-80
2021/07/25 01:45:20;;;;;;;29.57;24.93;;;;;;;20.02;80.84;99993.31;5010938;28;20709;-79
2021/07/25 01:47:47;;;;;;;32.33;24.83;;;;;;;20.02;80.92;100001.41;5015925;28;20597;-79
2021/07/25 01:50:15;;;;;;;35.07;25.70;;;;;;;20.01;81.07;100005.16;5004756;28;20627;-79
2021/07/25 01:52:41;;;;;;;30.67;24.27;;;;;;;19.99;80.80;100006.31;5008256;28;20717;-79
2021/07/25 01:55:10;;;;;;;29.37;24.07;;;;;;;19.95;80.82;100008.53;5015875;28;20230;-79
2021/07/25 01:57:37;;;;;;;30.57;23.60;;;;;;;19.90;80.52;100013.59;5000945;28;20223;-83
2021/07/25 02:00:05;;;;;;;29.40;22.07;;;;;;;19.88;80.53;100010.25;4999149;28;20675;-83
2021/07/25 02:02:31;;;;;;;30.00;23.70;;;;;;;19.85;80.42;100013.28;5000393;28;20210;-82
2021/07/25 02:04:58;;;;;;;31.87;25.37;;;;;;;19.82;80.68;100019.03;5011779;28;20229;-83
2021/07/25 02:07:24;;;;;;;31.20;24.77;;;;;;;19.79;80.56;100022.06;5007931;28;20609;-83
2021/07/25 02:09:51;;;;;;;35.07;25.00;;;;;;;19.77;80.60;100026.81;4998869;28;20213;-83
2021/07/25 02:12:19;;;;;;;30.33;24.27;;;;;;;19.74;80.54;100016.34;5015612;28;20213;-83
2021/07/25 02:14:45;;;;;;;32.97;25.73;;;;;;;19.70;80.47;100023.13;5015692;28;20236;-82
2021/07/25 02:17:12;;;;;;;32.17;26.13;;;;;;;19.68;80.52;100030.53;5016151;28;20238;-83
2021/07/25 02:19:39;;;;;;;30.53;23.63;;;;;;;19.65;80.43;100045.22;5006422;28;20216;-83
2021/07/25 02:22:05;;;;;;;31.93;25.33;;;;;;;19.64;80.60;100048.09;5013639;28;20212;-82
2021/07/25 02:24:32;;;;;;;33.97;26.00;;;;;;;19.62;80.48;100050.97;5008850;28;20229;-83
2021/07/25 02:26:58;;;;;;;30.30;24.33;;;;;;;19.60;80.62;100050.28;5016188;28;20232;-83
2021/07/25 02:29:27;;;;;;;32.43;25.53;;;;;;;19.58;80.67;100054.19;5006927;28;20222;-83
2021/07/25 02:31:53;;;;;;;31.20;25.63;;;;;;;19.54;80.49;100048.25;5013724;28;20207;-82
2021/07/25 02:34:20;;;;;;;30.03;23.27;;;;;;;19.51;80.56;100059.44;5005424;28;20317;-82
2021/07/25 02:36:46;;;;;;;29.40;24.10;;;;;;;19.47;80.46;100055.34;4996112;28;20207;-83
2021/07/25 02:39:13;;;;;;;32.17;25.03;;;;;;;19.44;80.50;100063.78;5000940;28;20212;-83
2021/07/25 02:41:39;;;;;;;31.30;24.97;;;;;;;19.41;80.33;100075.75;4995022;28;20226;-83
2021/07/25 02:44:07;;;;;;;36.67;25.30;;;;;;;19.39;80.26;100069.66;4998462;28;22214;-83
2021/07/25 02:46:35;;;;;;;33.57;24.40;;;;;;;19.37;80.74;100060.88;5000732;28;20229;-83
2021/07/25 02:49:02;;;;;;;29.97;24.30;;;;;;;19.35;80.44;100067.47;5010859;28;20210;-83
2021/07/25 02:51:28;;;;;;;31.33;24.93;;;;;;;19.33;80.50;100062.25;5009119;28;20213;-83
2021/07/25 02:53:55;;;;;;;32.23;24.90;;;;;;;19.31;80.42;100069.69;5015305;28;20643;-83
2021/07/25 02:56:21;;;;;;;31.93;24.87;;;;;;;19.30;80.29;100056.34;5009166;28;20204;-83
2021/07/25 02:58:48;;;;;;;32.60;24.87;;;;;;;19.26;80.22;100050.44;5001587;28;20291;-83
2021/07/25 03:01:15;;;;;;;32.77;24.37;;;;;;;19.22;80.18;100059.03;4995196;28;20207;-83
2021/07/25 03:03:43;;;;;;;30.37;23.73;;;;;;;19.16;79.92;100057.00;5013561;28;20204;-83
2021/07/25 03:06:10;;;;;;;38.40;26.27;;;;;;;19.10;79.89;100066.59;5012198;28;20682;-82
2021/07/25 03:08:37;;;;;;;34.10;24.93;;;;;;;19.04;80.19;100072.66;5013685;28;20224;-83
2021/07/25 03:11:07;;;;;;;31.73;25.00;;;;;;;19.00;80.26;100066.75;5014254;28;20673;-83
2021/07/25 03:13:33;;;;;;;37.03;23.87;;;;;;;18.99;80.23;100069.59;5006663;28;20216;-83
2021/07/25 03:16:02;;;;;;;30.43;23.40;;;;;;;18.97;80.42;100068.94;5014225;28;20316;-83
2021/07/25 03:18:28;;;;;;;33.77;24.10;;;;;;;18.94;80.46;100071.97;5006066;28;20729;-83
2021/07/25 03:20:56;;;;;;;29.67;22.83;;;;;;;18.90;80.48;100070.59;4997110;28;20204;-83
2021/07/25 03:23:23;;;;;;;36.33;25.73;;;;;;;18.89;80.32;100066.22;5006321;28;20220;-84
2021/07/25 03:25:50;;;;;;;38.67;23.90;;;;;;;18.85;80.42;100063.00;5013121;28;20692;-84
2021/07/25 03:28:16;;;;;;;42.43;26.80;;;;;;;18.81;80.35;100067.03;5008880;28;20599;-83
2021/07/25 03:30:44;;;;;;;38.20;25.13;;;;;;;18.80;80.53;100068.06;5009499;28;20215;-83
2021/07/25 03:33:11;;;;;;;32.93;22.83;;;;;;;18.78;80.60;100078.16;4993365;28;20216;-84
2021/07/25 03:35:37;;;;;;;35.77;24.57;;;;;;;18.75;80.65;100078.50;4994807;28;20227;-83
2021/07/25 03:38:05;;;;;;;39.70;25.63;;;;;;;18.73;80.88;100075.94;5009256;28;20219;-81
2021/07/25 03:40:32;;;;;;;37.27;24.93;;;;;;;18.71;80.94;100074.41;5009903;28;20208;-81
2021/07/25 03:42:59;;;;;;;30.83;23.43;;;;;;;18.70;80.89;100081.66;5000786;28;20218;-84
2021/07/25 03:45:25;;;;;;;31.67;23.57;;;;;;;18.69;80.88;100093.47;4999444;28;20238;-84
2021/07/25 03:47:53;;;;;;;28.57;23.00;;;;;;;18.67;80.80;100090.09;4997625;28;20224;-83
2021/07/25 03:50:20;;;;;;;36.43;22.20;;;;;;;18.64;80.54;100090.41;4997738;28;20203;-81
2021/07/25 03:52:47;;;;;;;43.80;25.43;;;;;;;18.54;80.26;100092.38;5008767;28;20215;-81
2021/07/25 03:55:16;;;;;;;35.43;21.37;;;;;;;18.46;80.16;100089.63;4996303;28;20234;-82
2021/07/25 03:57:45;;;;;;;43.50;23.83;;;;;;;18.38;80.33;100079.66;5006752;28;20210;-84
2021/07/25 04:00:12;;;;;;;39.30;23.03;;;;;;;18.36;80.55;100086.22;5014006;28;20220;-84
2021/07/25 04:02:39;;;;;;;37.40;22.60;;;;;;;18.35;80.61;100089.91;5004528;28;20204;-82
2021/07/25 04:05:06;;;;;;;34.97;23.27;;;;;;;18.34;80.83;100089.06;5003928;28;20705;-82
2021/07/25 04:07:33;;;;;;;31.83;22.93;;;;;;;18.33;80.90;100090.06;5006565;28;20736;-81
2021/07/25 04:09:59;;;;;;;36.40;22.83;;;;;;;18.32;81.18;100088.38;5011257;28;20713;-81
2021/07/25 04:12:27;;;;;;;29.30;22.53;;;;;;;18.34;81.01;100099.00;5013426;28;20213;-80
2021/07/25 04:14:53;;;;;;;34.33;23.50;;;;;;;18.33;81.25;100098.16;5015217;28;20220;-81
2021/07/25 04:17:20;;;;;;;35.27;24.13;;;;;;;18.33;81.32;100100.84;5013982;28;20300;-83
2021/07/25 04:19:47;;;;;;;31.43;24.07;;;;;;;18.34;81.48;100099.84;5009120;28;20230;-83
2021/07/25 04:22:13;;;;;;;33.20;23.83;;;;;;;18.34;81.66;100101.69;5006583;28;20657;-83
2021/07/25 04:24:40;;;;;;;28.80;22.30;;;;;;;18.35;81.43;100106.94;5004595;28;20233;-83
2021/07/25 04:27:07;;;;;;;31.53;22.30;;;;;;;18.32;81.35;100101.00;5002781;28;20298;-83
2021/07/25 04:29:36;;;;;;;31.63;22.90;;;;;;;18.30;81.47;100101.16;4998842;28;20212;-83
2021/07/25 04:32:03;;;;;;;30.50;22.60;;;;;;;18.28;81.71;100097.78;4999948;28;20221;-83
2021/07/25 04:34:30;;;;;;;32.63;23.30;;;;;;;18.29;81.91;100099.47;5004262;28;20238;-83
2021/07/25 04:36:59;;;;;;;32.30;22.87;;;;;;;18.31;81.98;100107.41;4996939;28;20203;-83
2021/07/25 04:39:26;;;;;;;29.07;22.27;;;;;;;18.30;82.07;100103.84;5006371;28;20249;-83
2021/07/25 04:41:56;;;;;;;30.93;23.47;;;;;;;18.30;82.09;100116.50;4996412;28;20200;-84
2021/07/25 04:44:29;;;;;;;31.83;21.20;;;;;;;18.25;81.74;100124.22;5002048;28;20227;-83
2021/07/25 04:47:04;;;;;;;39.07;21.73;;;;;;;18.14;81.40;100128.00;4998055;28;20201;-83
2021/07/25 04:49:36;;;;;;;34.57;22.20;;;;;;;18.06;81.55;100135.22;5002236;28;20296;-83
2021/07/25 04:52:04;;;;;;;35.93;24.03;;;;;;;18.02;82.08;100142.75;4994482;28;20205;-83
2021/07/25 04:54:36;;;;;;;29.30;22.87;;;;;;;18.00;82.46;100140.22;5000001;28;20234;-82
2021/07/25 04:57:06;;;;;;;30.13;23.73;;;;;;;18.02;82.83;100138.22;5001399;28;20206;-82
2021/07/25 04:59:43;;;;;;;34.10;24.33;;;;;;;18.07;83.19;100136.91;5011391;28;20244;-81
2021/07/25 05:02:14;;;;;;;39.83;24.83;;;;;;;18.11;83.58;100141.81;5013054;28;20597;-81
2021/07/25 05:04:40;;;;;;;36.77;23.93;;;;;;;18.14;83.68;100138.78;5012428;28;20233;-81
2021/07/25 05:07:11;;;;;;;32.30;24.03;;;;;;;18.19;83.90;100132.94;5013165;28;20211;-81
2021/07/25 05:09:38;;;;;;;39.33;25.17;;;;;;;18.21;84.01;100136.31;5003350;28;20224;-82
2021/07/25 05:12:11;;;;;;;32.97;24.57;;;;;;;18.23;84.01;100128.94;5006151;28;20217;-82
2021/07/25 05:14:39;;;;;;;33.97;24.53;;;;;;;18.25;84.33;100129.63;5013677;28;20232;-82
2021/07/25 05:17:18;;;;;;;33.67;25.33;;;;;;;18.29;84.60;100128.28;5009493;28;20208;-82
2021/07/25 05:19:56;;;;;;;29.67;23.83;;;;;;;18.35;84.84;100139.28;4998143;28;20199;-82
2021/07/25 05:22:34;;;;;;;28.40;23.97;;;;;;;18.42;85.24;100142.19;4999089;28;20210;-83
2021/07/25 05:25:05;;;;;;;34.40;23.53;;;;;;;18.50;85.49;100135.97;5001092;28;20316;-82
2021/07/25 05:27:39;;;;;;;30.53;22.80;;;;;;;18.57;85.53;100137.03;4994734;28;20673;-82
2021/07/25 05:30:08;;;;;;;34.10;23.93;;;;;;;18.62;85.82;100141.00;5002773;28;20211;-82
2021/07/25 05:32:36;;;;;;;30.23;24.37;;;;;;;18.69;85.56;100143.88;5001538;28;20199;-82
2021/07/25 05:35:02;;;;;;;39.93;24.40;;;;;;;18.74;85.68;100146.94;4997513;28;20229;-82
2021/07/25 05:37:29;;;;;;;34.33;23.57;;;;;;;18.80;85.77;100150.84;4997119;28;20214;-82
2021/07/25 05:39:55;;;;;;;28.53;20.97;;;;;;;18.87;85.74;100149.19;4999498;28;20205;-82
2021/07/25 05:42:22;;;;;;;25.13;20.90;;;;;;;18.96;85.71;100151.75;5008184;28;20209;-82
2021/07/25 05:44:49;;;;;;;22.37;19.47;;;;;;;19.03;85.51;100152.78;5007099;28;20224;-82
2021/07/25 05:47:15;;;;;;;29.23;19.20;;;;;;;19.11;85.50;100154.66;5012609;28;20222;-81
2021/07/25 05:49:43;;;;;;;29.17;19.20;;;;;;;19.21;85.30;100151.81;5006804;28;20211;-82
2021/07/25 05:52:09;;;;;;;26.67;18.70;;;;;;;19.31;85.32;100155.22;5007558;28;20219;-82
2021/07/25 05:54:36;;;;;;;24.53;18.23;;;;;;;19.43;85.23;100153.91;5012360;28;20235;-82
2021/07/25 05:57:03;;;;;;;25.67;18.33;;;;;;;19.55;85.01;100146.34;5008648;28;20296;-82
2021/07/25 05:59:29;;;;;;;27.70;17.30;;;;;;;19.67;84.77;100145.03;5013314;28;20249;-82
2021/07/25 06:01:56;;;;;;;18.03;16.07;;;;;;;19.76;84.25;100147.56;4999557;28;20204;-82
2021/07/25 06:04:23;;;;;;;24.30;17.03;;;;;;;19.88;83.86;100150.78;5011464;28;20228;-82
2021/07/25 06:06:50;;;;;;;20.50;16.30;;;;;;;20.00;nan;100146.72;5014207;28;20208;-82
2021/07/25 06:09:17;;;;;;;17.97;16.03;;;;;;;20.14;83.10;100147.88;5004439;28;20228;-82
2021/07/25 06:11:44;;;;;;;24.80;16.43;;;;;;;20.29;82.55;100156.13;5015004;28;20220;-81
2021/07/25 06:14:11;;;;;;;20.53;16.27;;;;;;;20.42;82.17;100151.09;5015578;28;21798;-83
2021/07/25 06:16:37;;;;;;;20.53;16.13;;;;;;;20.56;81.28;100144.13;5011031;28;20200;-83
2021/07/25 06:19:04;;;;;;;24.27;15.93;;;;;;;20.67;80.80;100144.56;5011347;28;20206;-82
2021/07/25 06:21:31;;;;;;;21.93;16.20;;;;;;;20.80;80.31;100152.97;5013892;28;20550;-83
2021/07/25 06:23:59;;;;;;;17.33;14.43;;;;;;;20.90;79.54;100150.06;5011285;28;20211;-82
2021/07/25 06:26:26;;;;;;;20.77;14.03;;;;;;;21.03;79.13;100147.63;5007079;28;20206;-81
2021/07/25 06:28:53;;;;;;;18.33;14.93;;;;;;;21.17;78.55;100156.88;5007112;28;20229;-81
2021/07/25 06:31:19;;;;;;;19.07;14.40;;;;;;;21.30;77.79;100153.63;5006396;28;20216;-81
2021/07/25 06:33:46;;;;;;;16.17;14.20;;;;;;;21.42;77.09;100160.31;5010648;28;20210;-81
2021/07/25 06:36:15;;;;;;;16.70;14.83;;;;;;;21.54;76.50;100163.44;5007524;28;20230;-82
2021/07/25 06:38:44;;;;;;;16.13;14.52;;;;;;;21.64;75.67;100164.94;5003054;28;20220;-83
2021/07/25 06:41:13;;;;;;;14.97;12.80;;;;;;;21.75;75.17;100169.06;5007181;28;20205;-82
2021/07/25 06:43:41;;;;;;;15.97;14.33;;;;;;;21.88;74.44;100177.44;5004873;28;20215;-82
2021/07/25 06:46:09;;;;;;;15.95;13.98;;;;;;;21.98;73.69;100167.19;5007467;28;20231;-82
2021/07/25 06:48:36;;;;;;;17.58;14.70;;;;;;;22.07;73.25;100171.53;5006081;28;20818;-81
2021/07/25 06:51:03;;;;;;;15.20;13.60;;;;;;;22.17;72.69;100166.72;5003548;28;20207;-81
2021/07/25 06:53:32;;;;;;;16.35;13.30;;;;;;;22.27;71.81;100166.44;5005311;28;20209;-83
2021/07/25 06:56:01;;;;;;;17.52;13.38;;;;;;;22.36;71.48;100161.81;5007180;28;20596;-82
2021/07/25 06:58:29;;;;;;;14.88;13.48;;;;;;;22.47;71.13;100170.31;5010290;28;20201;-84
2021/07/25 07:00:55;;;;;;;17.23;13.25;;;;;;;22.59;70.66;100167.97;5010922;28;20701;-81
2021/07/25 07:03:22;;;;;;;16.42;13.23;;;;;;;22.66;70.10;100168.09;5010030;28;20209;-82
2021/07/25 07:05:49;;;;;;;15.20;12.93;;;;;;;22.77;69.82;100164.91;5009712;28;20227;-81
2021/07/25 07:08:15;;;;;;;14.20;12.73;;;;;;;22.89;69.34;100174.31;5007524;28;20227;-82
2021/07/25 07:10:44;;;;;;;14.57;12.90;;;;;;;23.01;68.88;100172.78;5005693;28;20194;-82
2021/07/25 07:13:15;;;;;;;14.48;12.10;;;;;;;23.17;68.03;100169.00;5003018;28;20214;-82
2021/07/25 07:15:45;;;;;;;18.77;13.02;;;;;;;23.24;67.29;100174.53;5005517;28;20222;-83
2021/07/25 07:18:14;;;;;;;14.18;12.63;;;;;;;23.34;67.58;100170.47;5001857;28;20209;-83
2021/07/25 07:20:43;;;;;;;15.85;13.15;;;;;;;23.49;67.44;100175.84;5002986;28;20221;-82
2021/07/25 07:23:11;;;;;;;14.45;12.52;;;;;;;23.63;67.34;100169.59;5010194;28;20230;-83
2021/07/25 07:25:41;;;;;;;15.95;12.23;;;;;;;23.75;65.69;100172.63;5003905;28;20296;-82
2021/07/25 07:28:08;;;;;;;12.50;11.20;;;;;;;23.85;64.93;100173.13;5006172;28;20245;-82
2021/07/25 07:30:35;;;;;;;15.82;11.40;;;;;;;23.88;63.71;100172.75;5006692;28;20217;-82
2021/07/25 07:33:08;;;;;;;13.20;11.60;;;;;;;23.97;63.20;100157.16;5001293;28;20207;-81
2021/07/25 07:35:34;;;;;;;13.63;11.02;;;;;;;24.05;62.91;100157.00;5002800;28;20218;-82
2021/07/25 07:38:01;;;;;;;12.43;11.23;;;;;;;24.18;62.58;100170.72;5003727;28;20695;-81
2021/07/25 07:40:28;;;;;;;14.30;10.85;;;;;;;24.33;62.39;100176.09;5002913;28;20588;-81
2021/07/25 07:42:54;;;;;;;12.88;11.18;;;;;;;24.43;61.69;100177.44;5003302;28;20209;-82
2021/07/25 07:45:21;;;;;;;11.73;10.55;;;;;;;24.49;60.73;100178.53;5003724;28;20254;-81
2021/07/25 07:47:48;;;;;;;12.77;10.10;;;;;;;24.52;60.40;100176.25;5003182;28;20207;-83
2021/07/25 07:50:19;;;;;;;11.98;10.77;;;;;;;24.55;60.25;100175.00;5001810;28;20242;-82
2021/07/25 07:52:47;;;;;;;11.82;10.63;;;;;;;24.60;60.24;100169.78;4998116;28;20221;-82
2021/07/25 07:55:13;;;;;;;12.43;11.30;;;;;;;24.75;60.50;100173.25;5004993;28;20246;-82
2021/07/25 07:57:40;;;;;;;12.02;10.88;;;;;;;24.88;60.34;100167.88;5000515;28;20199;-82
2021/07/25 08:00:09;;;;;;;13.40;11.30;;;;;;;25.03;59.90;100162.31;5002717;28;20199;-83
2021/07/25 08:02:35;;;;;;;11.50;10.40;;;;;;;25.20;60.68;100174.56;5003471;28;20213;-82
2021/07/25 08:05:02;;;;;;;12.00;10.82;;;;;;;25.37;59.93;100166.03;5006932;28;20242;-82
2021/07/25 08:07:30;;;;;;;13.15;10.63;;;;;;;25.49;58.94;100167.09;5010434;28;20210;-82
2021/07/25 08:09:56;;;;;;;11.75;10.55;;;;;;;25.60;57.74;100172.81;5011328;28;20245;-81
2021/07/25 08:12:23;;;;;;;12.45;10.90;;;;;;;25.67;57.48;100164.66;5010806;28;20212;-81
2021/07/25 08:14:53;;;;;;;11.40;10.20;;;;;;;25.69;56.50;100165.28;5008088;28;20236;-81
2021/07/25 08:17:19;;;;;;;11.00;9.68;;;;;;;25.66;56.28;100162.13;5014517;28;20203;-82
2021/07/25 08:19:46;;;;;;;10.82;9.75;;;;;;;25.67;56.80;100172.00;5010902;28;20217;-82
2021/07/25 08:22:12;;;;;;;14.95;10.43;;;;;;;25.77;57.24;100161.53;5014240;28;20210;-82
2021/07/25 08:24:41;;;;;;;10.55;9.48;;;;;;;25.90;56.61;100158.81;5015559;28;20226;-81
2021/07/25 08:27:08;;;;;;;10.30;9.25;;;;;;;25.99;54.94;100156.72;5013978;28;20221;-81
2021/07/25 08:29:36;;;;;;;10.70;9.70;;;;;;;26.05;54.90;100164.91;5014352;28;20227;-81
2021/07/25 08:32:03;;;;;;;10.60;9.70;;;;;;;26.15;54.64;100162.63;5012097;28;20210;-81
2021/07/25 08:34:30;;;;;;;10.60;9.65;;;;;;;26.25;55.13;100163.03;5011883;28;20237;-80
2021/07/25 08:36:57;;;;;;;11.00;9.88;;;;;;;26.36;54.31;100158.00;5013348;28;20207;-81
2021/07/25 08:39:24;;;;;;;11.02;9.43;;;;;;;26.46;53.59;100158.44;5014549;28;20674;-81
2021/07/25 08:42:00;;;;;;;10.82;9.75;;;;;;;26.55;53.29;100151.69;5012756;28;20213;-81
2021/07/25 08:44:45;;;;;;;9.48;8.52;;;;;;;26.59;52.15;100151.03;5011372;28;20218;-80
2021/07/25 08:47:19;;;;;;;10.68;9.57;;;;;;;26.61;52.13;100154.41;5010580;28;20211;-81
2021/07/25 08:49:53;;;;;;;9.52;8.52;;;;;;;26.67;52.22;100150.00;5013366;28;20223;-81
2021/07/25 08:52:22;;;;;;;10.02;9.02;;;;;;;26.72;52.23;100152.91;5005311;28;20664;-81
2021/07/25 08:54:49;;;;;;;10.30;9.27;;;;;;;26.82;51.77;100153.31;5001838;28;20604;-81
2021/07/25 08:57:19;;;;;;;9.93;8.88;;;;;;;26.90;51.07;100152.22;5002735;28;20203;-81
2021/07/25 08:59:49;;;;;;;10.48;8.68;;;;;;;27.00;51.16;100154.53;5002794;28;20218;-81
2021/07/25 09:02:21;;;;;;;10.15;8.88;;;;;;;27.15;51.22;100157.84;5006021;28;20291;-81
2021/07/25 09:04:48;;;;;;;9.68;8.77;;;;;;;27.22;51.12;100154.03;5000587;28;20231;-81
2021/07/25 09:07:15;;;;;;;9.88;8.88;;;;;;;27.35;51.05;100164.06;5002579;28;20207;-81
2021/07/25 09:09:43;;;;;;;9.43;8.63;;;;;;;27.45;50.11;100155.38;5004555;28;20241;-81
2021/07/25 09:12:11;;;;;;;9.98;8.45;;;;;;;27.54;49.65;100156.81;5005625;28;20211;-81
2021/07/25 09:14:42;;;;;;;9.02;8.23;;;;;;;27.53;49.71;100166.06;5004579;28;20223;-80
2021/07/25 09:17:09;;;;;;;9.23;8.32;;;;;;;27.63;49.75;100166.44;5004125;28;20227;-81
2021/07/25 09:19:36;;;;;;;8.60;7.82;;;;;;;27.72;48.73;100162.41;5004616;28;20210;-78
2021/07/25 09:22:03;;;;;;;8.82;8.02;;;;;;;27.75;47.91;100166.59;5008269;28;20216;-81
2021/07/25 09:24:31;;;;;;;8.32;7.63;;;;;;;27.76;47.66;100160.06;5009198;28;20227;-80
2021/07/25 09:27:00;;;;;;;9.40;8.45;;;;;;;27.75;47.52;100158.41;5008228;28;20249;-80
2021/07/25 09:29:29;;;;;;;11.23;8.40;;;;;;;27.70;47.92;100166.41;5006534;28;20223;-80
2021/07/25 09:32:11;;;;;;;9.93;8.98;;;;;;;27.60;47.45;100169.63;5013775;28;20213;-80
2021/07/25 09:34:39;;;;;;;8.98;8.18;;;;;;;27.45;47.43;100160.84;5010571;28;20226;-80
2021/07/25 09:37:11;;;;;;;8.57;7.70;;;;;;;27.31;48.07;100163.66;5017738;28;20203;-80
2021/07/25 09:39:39;;;;;;;8.77;7.97;;;;;;;27.25;48.26;100169.13;5007009;28;20206;-81
2021/07/25 09:42:08;;;;;;;9.82;8.82;;;;;;;27.20;48.15;100167.06;5006083;28;20615;-81
2021/07/25 09:44:49;;;;;;;8.93;8.07;;;;;;;27.14;48.63;100169.81;5004584;28;20230;-81
2021/07/25 09:47:29;;;;;;;8.85;8.00;;;;;;;27.06;48.68;100175.53;5005575;28;20213;-80
2021/07/25 09:49:55;;;;;;;8.98;8.07;;;;;;;26.97;48.56;100169.47;5007814;28;20222;-81
2021/07/25 09:52:32;;;;;;;7.72;7.07;;;;;;;26.85;48.74;100162.97;5007475;28;20590;-80
2021/07/25 09:55:03;;;;;;;8.32;7.53;;;;;;;26.75;49.22;100168.03;5006631;28;20226;-80
2021/07/25 09:57:31;;;;;;;8.07;7.28;;;;;;;26.69;49.18;100169.75;5010110;28;20210;-80
2021/07/25 10:00:06;;;;;;;8.15;7.35;;;;;;;26.64;49.77;100166.81;5002378;28;20595;-81
2021/07/25 10:02:39;;;;;;;8.07;7.28;;;;;;;26.63;49.69;100165.13;5003771;28;20205;-82
2021/07/25 10:05:07;;;;;;;8.43;7.57;;;;;;;26.62;50.56;100167.00;5008134;28;20234;-81
2021/07/25 10:07:34;;;;;;;8.70;7.80;;;;;;;26.61;50.78;100159.03;5008029;28;20207;-81
2021/07/25 10:10:01;;;;;;;8.68;7.80;;;;;;;26.60;50.72;100165.53;5004698;28;20280;-81
2021/07/25 10:12:28;;;;;;;7.80;7.10;;;;;;;26.53;50.91;100161.97;5005908;28;20207;-81
2021/07/25 10:14:58;;;;;;;7.65;6.95;;;;;;;26.49;51.75;100163.47;5002095;28;20227;-82
2021/07/25 10:17:26;;;;;;;8.07;7.38;;;;;;;26.46;51.45;100161.16;5007716;28;20213;-81
2021/07/25 10:19:55;;;;;;;7.97;7.03;;;;;;;26.47;51.80;100166.41;5011774;28;20646;-81
2021/07/25 10:22:23;;;;;;;8.13;7.32;;;;;;;26.52;51.35;100163.84;5004684;28;20214;-81
2021/07/25 10:24:52;;;;;;;8.55;7.68;;;;;;;26.54;51.14;100163.66;5018081;28;20230;-81
2021/07/25 10:27:19;;;;;;;8.38;7.32;;;;;;;26.53;51.05;100170.16;5014411;28;20588;-81
2021/07/25 10:29:46;;;;;;;7.80;7.03;;;;;;;26.53;50.59;100181.91;5011749;28;20226;-81
2021/07/25 10:32:13;;;;;;;11.15;7.57;;;;;;;26.55;50.93;100173.53;5012778;28;20229;-81
2021/07/25 10:34:41;;;;;;;8.80;7.90;;;;;;;26.59;51.15;100180.25;5008391;28;20310;-81
2021/07/25 10:37:09;;;;;;;7.85;7.10;;;;;;;26.68;51.68;100175.41;5013549;28;20216;-81
2021/07/25 10:39:38;;;;;;;7.90;7.18;;;;;;;26.74;50.61;100172.66;5008868;28;20219;-78
2021/07/25 10:42:06;;;;;;;8.82;7.80;;;;;;;26.72;50.86;100172.03;5009581;28;20299;-78
2021/07/25 10:44:33;;;;;;;8.30;7.30;;;;;;;26.75;50.78;100173.50;5010473;28;20226;-81
2021/07/25 10:47:25;;;;;;;8.55;7.80;;;;;;;26.80;50.69;100176.44;5000922;28;20221;-81
2021/07/25 10:50:01;;;;;;;7.78;7.18;;;;;;;26.84;50.72;100173.06;5004469;28;20227;-81
2021/07/25 10:52:49;;;;;;;8.05;7.25;;;;;;;26.83;50.20;100165.91;5008842;28;20202;-81
2021/07/25 10:55:46;;;;;;;8.10;7.30;;;;;;;26.77;50.09;100165.91;5007588;28;20592;-81
2021/07/25 10:58:13;;;;;;;8.13;7.43;;;;;;;26.76;50.47;100165.06;5009627;28;20206;-81
2021/07/25 11:00:42;;;;;;;8.00;7.30;;;;;;;26.78;50.42;100167.59;5003966;28;20203;-81
2021/07/25 11:03:10;;;;;;;8.32;7.47;;;;;;;26.77;50.28;100174.13;5008909;28;20293;-81
2021/07/25 11:06:20;;;;;;;8.38;7.35;;;;;;;26.76;50.69;100169.69;5008181;28;20285;-80
2021/07/25 11:08:51;;;;;;;8.30;7.50;;;;;;;26.80;50.64;100173.69;5006250;28;20245;-81
2021/07/25 11:11:56;;;;;;;8.57;7.85;;;;;;;26.82;50.78;100179.78;5005178;28;20236;-81
2021/07/25 11:15:08;;;;;;;8.30;7.50;;;;;;;26.83;51.10;100182.31;5002693;28;20629;-82
2021/07/25 11:17:55;;;;;;;8.20;7.47;;;;;;;26.90;52.09;100177.66;4998942;28;20203;-81
2021/07/25 11:20:42;;;;;;;7.28;6.68;;;;;;;26.91;51.20;100175.75;5008039;28;20241;-82
2021/07/25 11:23:14;;;;;;;8.13;7.32;;;;;;;26.91;50.89;100184.78;5003429;28;20201;-80